Ana Sayfa
METAR-TAF:

METAR-TAF

Havaalanları :

Stinson Municipal Airport

San Antonio, Teksas, Amerika Birleşik Devletleri

Enlem: 29-20-20N, Boylam: 098-28-18W, yükseklik: 175 m

Güncel hava durumu gözlemi

Rapor saat 23:53 UTC de 24 dakika önce yapıldı.
Rüzgar güneydoğudan 3 kt
Sıcaklık 23°C
Nem 36%
Basınç 1013 hPa
Görüş mesafesi: 16.1 km
Açık gökyüzü

METAR: KSSF 262353Z 13003KT 10SM CLR 23/07 A2992 RMK AO2 SLP125 T02280067 10256 20200 55002

Saat: 18:17 (00:17 UTC)

Tahmin

Rapor saat 23:38 UTC de 39 dakika önce yapıldı.
Ayın 27'si saat 00 UTC'den ayın 27'si saat 24 UTC'ye kadar geçerli Tahmin
Rüzgar kuzeydan 5 kt
Görüş mesafesi: 10 km
Açık gökyüzü
Ayın 27'si saat 1200 UTC'den
Rüzgar kuzeydan kt
Görüş mesafesi: 1.6 km
300 ft yükseklikte parçalı bulutlu
Pus
Ayın 27'si saat 1500 UTC'den
Rüzgar doğu/güneydoğudan 5 kt
Görüş mesafesi: 10 km
Açık gökyüzü

TAF: KSSF 262338Z 2700/2724 35005KT P6SM SKC FM271200 00000KT 1SM BR SCT003 FM271500 12005KT P6SM SKC

4.000'den fazla havaalanı için hava durumu gözlemleri ve tahminleri (METAR ve TAF raporları).

Kullanılabilir istasyonlar harita üzerinde sarı ve kırmızı noktalarla gösterilir.

İstasyonun adını görmek için fareyi noktanın üzerinde gezdirin.

Sonrasında hava gözlem ve tahminlerini görmek için tıklayın.

Haritayı değiştirmek için: yaklaştırmak için siyah artı işaretli yeşil düğmeye ve uzaklaştırmak için de eksi işaretli düğmeye hızla tıklayın; bitişik haritalar için yeşil okları kullanın.


METAR-TAF: